sensor_id;sensor_type;location;lat;lon;timestamp;pressure;altitude;pressure_sealevel;temperature;humidity
21011;BME280;10663;42.714;23.274;2023-03-13T00:03:00;95032.03;;;3.14;54.57
21011;BME280;10663;42.714;23.274;2023-03-13T00:04:31;95033.31;;;2.98;54.72
21011;BME280;10663;42.714;23.274;2023-03-13T00:06:01;95026.63;;;3.09;56.31
21011;BME280;10663;42.714;23.274;2023-03-13T00:07:32;95035.53;;;3.33;53.69
21011;BME280;10663;42.714;23.274;2023-03-13T00:09:05;95026.16;;;3.19;53.35
21011;BME280;10663;42.714;23.274;2023-03-13T00:10:37;95037.56;;;3.31;53.98
21011;BME280;10663;42.714;23.274;2023-03-13T00:12:08;95040.03;;;3.26;53.45
21011;BME280;10663;42.714;23.274;2023-03-13T00:13:40;95031.22;;;3.14;53.39
21011;BME280;10663;42.714;23.274;2023-03-13T00:15:11;95038.47;;;3.18;53.58
21011;BME280;10663;42.714;23.274;2023-03-13T00:16:42;95040.84;;;3.20;54.21
21011;BME280;10663;42.714;23.274;2023-03-13T00:18:13;95042.09;;;3.17;53.83
21011;BME280;10663;42.714;23.274;2023-03-13T00:19:44;95043.53;;;3.07;55.10
21011;BME280;10663;42.714;23.274;2023-03-13T00:21:15;95050.94;;;3.10;53.86
21011;BME280;10663;42.714;23.274;2023-03-13T00:22:46;95045.44;;;2.86;54.41
21011;BME280;10663;42.714;23.274;2023-03-13T00:24:17;95048.41;;;2.96;54.08
21011;BME280;10663;42.714;23.274;2023-03-13T00:25:57;95037.44;;;2.81;54.68
21011;BME280;10663;42.714;23.274;2023-03-13T00:27:32;95047.28;;;2.79;54.86
21011;BME280;10663;42.714;23.274;2023-03-13T00:29:05;95043.03;;;2.85;54.13
21011;BME280;10663;42.714;23.274;2023-03-13T00:30:36;95057.28;;;2.95;53.86
21011;BME280;10663;42.714;23.274;2023-03-13T00:32:07;95043.41;;;2.95;54.30
21011;BME280;10663;42.714;23.274;2023-03-13T00:33:40;95056.22;;;3.03;55.12
21011;BME280;10663;42.714;23.274;2023-03-13T00:35:12;95046.41;;;2.92;53.56
21011;BME280;10663;42.714;23.274;2023-03-13T00:36:43;95043.47;;;2.82;54.39
21011;BME280;10663;42.714;23.274;2023-03-13T00:38:13;95043.78;;;2.98;53.82
21011;BME280;10663;42.714;23.274;2023-03-13T00:39:44;95047.25;;;2.86;54.28
21011;BME280;10663;42.714;23.274;2023-03-13T00:41:18;95052.31;;;2.74;54.41
21011;BME280;10663;42.714;23.274;2023-03-13T00:42:49;95050.91;;;2.78;54.46
21011;BME280;10663;42.714;23.274;2023-03-13T00:44:21;95044.69;;;2.79;54.01
21011;BME280;10663;42.714;23.274;2023-03-13T00:45:52;95046.94;;;2.69;54.69
21011;BME280;10663;42.714;23.274;2023-03-13T00:47:23;95049.53;;;2.69;54.33
21011;BME280;10663;42.714;23.274;2023-03-13T00:48:55;95056.63;;;2.62;54.72
21011;BME280;10663;42.714;23.274;2023-03-13T00:50:26;95042.84;;;2.86;54.79
21011;BME280;10663;42.714;23.274;2023-03-13T00:51:56;95043.59;;;2.93;53.54
21011;BME280;10663;42.714;23.274;2023-03-13T00:53:28;95042.22;;;2.91;54.05
21011;BME280;10663;42.714;23.274;2023-03-13T00:54:59;95040.81;;;2.88;53.62
21011;BME280;10663;42.714;23.274;2023-03-13T00:56:29;95043.78;;;2.98;53.55
21011;BME280;10663;42.714;23.274;2023-03-13T00:58:01;95045.63;;;2.91;53.62
21011;BME280;10663;42.714;23.274;2023-03-13T00:59:32;95041.06;;;2.74;54.14
21011;BME280;10663;42.714;23.274;2023-03-13T01:02:42;95039.84;;;2.76;54.54
21011;BME280;10663;42.714;23.274;2023-03-13T01:04:14;95036.81;;;2.86;54.29
21011;BME280;10663;42.714;23.274;2023-03-13T01:05:44;95031.41;;;2.81;54.10
21011;BME280;10663;42.714;23.274;2023-03-13T01:07:15;95036.00;;;2.85;54.12
21011;BME280;10663;42.714;23.274;2023-03-13T01:08:47;95031.38;;;2.87;53.95
21011;BME280;10663;42.714;23.274;2023-03-13T01:10:18;95029.34;;;2.89;54.75
21011;BME280;10663;42.714;23.274;2023-03-13T01:11:49;95033.59;;;2.84;54.99
21011;BME280;10663;42.714;23.274;2023-03-13T01:13:20;95037.00;;;2.91;54.03
21011;BME280;10663;42.714;23.274;2023-03-13T01:14:51;95033.22;;;3.18;54.36
21011;BME280;10663;42.714;23.274;2023-03-13T01:16:22;95033.53;;;3.28;54.01
21011;BME280;10663;42.714;23.274;2023-03-13T01:17:53;95042.19;;;3.29;53.23
21011;BME280;10663;42.714;23.274;2023-03-13T01:19:24;95036.41;;;3.20;54.26
21011;BME280;10663;42.714;23.274;2023-03-13T01:20:55;95031.63;;;3.11;53.67
21011;BME280;10663;42.714;23.274;2023-03-13T01:22:26;95036.63;;;2.81;53.73
21011;BME280;10663;42.714;23.274;2023-03-13T01:23:57;95038.94;;;3.02;53.96
21011;BME280;10663;42.714;23.274;2023-03-13T01:25:28;95047.72;;;3.14;53.98
21011;BME280;10663;42.714;23.274;2023-03-13T01:26:59;95037.56;;;2.99;53.47
21011;BME280;10663;42.714;23.274;2023-03-13T01:28:30;95044.72;;;3.11;54.70
21011;BME280;10663;42.714;23.274;2023-03-13T01:30:01;95049.44;;;2.95;53.88
21011;BME280;10663;42.714;23.274;2023-03-13T01:31:33;95051.97;;;2.71;55.18
21011;BME280;10663;42.714;23.274;2023-03-13T01:33:05;95048.69;;;2.75;55.07
21011;BME280;10663;42.714;23.274;2023-03-13T01:34:35;95047.09;;;2.81;54.69
21011;BME280;10663;42.714;23.274;2023-03-13T01:36:07;95049.66;;;2.87;54.58
21011;BME280;10663;42.714;23.274;2023-03-13T01:37:38;95052.69;;;2.84;54.39
21011;BME280;10663;42.714;23.274;2023-03-13T01:39:09;95056.66;;;3.00;55.92
21011;BME280;10663;42.714;23.274;2023-03-13T01:40:47;95053.81;;;3.08;54.73
21011;BME280;10663;42.714;23.274;2023-03-13T01:42:18;95050.19;;;3.03;54.37
21011;BME280;10663;42.714;23.274;2023-03-13T01:43:49;95052.34;;;3.12;55.01
21011;BME280;10663;42.714;23.274;2023-03-13T01:47:22;95047.16;;;3.06;54.65
21011;BME280;10663;42.714;23.274;2023-03-13T01:49:27;95055.47;;;2.96;53.88
21011;BME280;10663;42.714;23.274;2023-03-13T01:51:10;95057.91;;;2.91;54.36
21011;BME280;10663;42.714;23.274;2023-03-13T01:52:43;95051.03;;;2.96;55.00
21011;BME280;10663;42.714;23.274;2023-03-13T01:55:59;95056.91;;;2.85;54.76
21011;BME280;10663;42.714;23.274;2023-03-13T01:57:35;95060.88;;;2.50;55.35
21011;BME280;10663;42.714;23.274;2023-03-13T01:59:10;95066.47;;;2.60;55.53
21011;BME280;10663;42.714;23.274;2023-03-13T02:00:44;95063.25;;;2.58;54.87
21011;BME280;10663;42.714;23.274;2023-03-13T02:02:15;95053.16;;;2.68;54.90
21011;BME280;10663;42.714;23.274;2023-03-13T02:03:48;95052.94;;;2.76;55.83
21011;BME280;10663;42.714;23.274;2023-03-13T02:05:21;95046.09;;;2.75;55.04
21011;BME280;10663;42.714;23.274;2023-03-13T02:06:55;95048.03;;;2.93;56.68
21011;BME280;10663;42.714;23.274;2023-03-13T02:08:36;95050.75;;;3.18;57.25
21011;BME280;10663;42.714;23.274;2023-03-13T02:10:08;95059.38;;;3.18;56.01
21011;BME280;10663;42.714;23.274;2023-03-13T02:11:47;95061.28;;;2.98;54.73
21011;BME280;10663;42.714;23.274;2023-03-13T02:13:20;95063.47;;;3.08;55.62
21011;BME280;10663;42.714;23.274;2023-03-13T02:14:52;95071.13;;;3.03;55.99
21011;BME280;10663;42.714;23.274;2023-03-13T02:16:24;95069.25;;;3.10;57.02
21011;BME280;10663;42.714;23.274;2023-03-13T02:17:59;95065.88;;;3.03;56.69
21011;BME280;10663;42.714;23.274;2023-03-13T02:19:43;95066.25;;;3.13;56.68
21011;BME280;10663;42.714;23.274;2023-03-13T02:21:30;95068.06;;;3.12;56.32
21011;BME280;10663;42.714;23.274;2023-03-13T02:23:26;95070.94;;;2.40;57.13
21011;BME280;10663;42.714;23.274;2023-03-13T02:26:46;95077.75;;;2.47;59.13
21011;BME280;10663;42.714;23.274;2023-03-13T02:28:28;95081.31;;;2.66;59.45
21011;BME280;10663;42.714;23.274;2023-03-13T02:30:06;95077.91;;;2.66;59.08
21011;BME280;10663;42.714;23.274;2023-03-13T02:31:37;95082.75;;;2.62;58.36
21011;BME280;10663;42.714;23.274;2023-03-13T02:33:11;95094.66;;;2.38;59.04
21011;BME280;10663;42.714;23.274;2023-03-13T02:34:43;95096.72;;;2.03;59.35
21011;BME280;10663;42.714;23.274;2023-03-13T02:36:15;95106.56;;;1.95;59.55
21011;BME280;10663;42.714;23.274;2023-03-13T02:37:51;95097.91;;;1.94;60.36
21011;BME280;10663;42.714;23.274;2023-03-13T02:39:26;95108.56;;;1.73;60.94
21011;BME280;10663;42.714;23.274;2023-03-13T02:41:00;95108.97;;;1.70;60.09
21011;BME280;10663;42.714;23.274;2023-03-13T02:42:33;95119.38;;;1.43;60.54
21011;BME280;10663;42.714;23.274;2023-03-13T02:44:04;95121.53;;;1.33;61.39
21011;BME280;10663;42.714;23.274;2023-03-13T02:45:36;95129.78;;;0.83;62.62
21011;BME280;10663;42.714;23.274;2023-03-13T02:47:10;95128.38;;;0.80;63.33
21011;BME280;10663;42.714;23.274;2023-03-13T02:48:48;95123.53;;;1.31;64.37
21011;BME280;10663;42.714;23.274;2023-03-13T02:50:20;95130.16;;;1.27;63.18
21011;BME280;10663;42.714;23.274;2023-03-13T02:52:13;95125.31;;;1.18;63.03
21011;BME280;10663;42.714;23.274;2023-03-13T02:53:48;95132.81;;;0.86;63.24
21011;BME280;10663;42.714;23.274;2023-03-13T02:55:39;95129.09;;;0.67;63.96
21011;BME280;10663;42.714;23.274;2023-03-13T02:57:12;95143.75;;;0.34;64.70
21011;BME280;10663;42.714;23.274;2023-03-13T02:58:43;95139.66;;;0.53;64.70
21011;BME280;10663;42.714;23.274;2023-03-13T03:00:15;95140.19;;;0.42;65.30
21011;BME280;10663;42.714;23.274;2023-03-13T03:01:48;95138.38;;;0.42;65.18
21011;BME280;10663;42.714;23.274;2023-03-13T03:03:22;95139.38;;;0.41;65.80
21011;BME280;10663;42.714;23.274;2023-03-13T03:04:53;95146.03;;;0.50;66.24
21011;BME280;10663;42.714;23.274;2023-03-13T03:06:24;95140.13;;;0.63;65.79
21011;BME280;10663;42.714;23.274;2023-03-13T03:07:55;95132.25;;;0.97;65.88
21011;BME280;10663;42.714;23.274;2023-03-13T03:09:27;95130.84;;;1.01;66.15
21011;BME280;10663;42.714;23.274;2023-03-13T03:11:04;95141.56;;;1.20;63.69
21011;BME280;10663;42.714;23.274;2023-03-13T03:12:35;95142.25;;;0.94;64.35
21011;BME280;10663;42.714;23.274;2023-03-13T03:14:07;95150.31;;;0.99;63.64
21011;BME280;10663;42.714;23.274;2023-03-13T03:15:42;95151.41;;;1.18;63.57
21011;BME280;10663;42.714;23.274;2023-03-13T03:17:13;95153.16;;;1.10;64.11
21011;BME280;10663;42.714;23.274;2023-03-13T03:18:45;95164.81;;;1.15;64.17
21011;BME280;10663;42.714;23.274;2023-03-13T03:20:16;95169.75;;;1.44;63.77
21011;BME280;10663;42.714;23.274;2023-03-13T03:21:47;95167.50;;;1.34;63.93
21011;BME280;10663;42.714;23.274;2023-03-13T03:23:22;95175.97;;;1.02;63.44
21011;BME280;10663;42.714;23.274;2023-03-13T03:24:53;95163.22;;;1.20;63.54
21011;BME280;10663;42.714;23.274;2023-03-13T03:26:23;95172.63;;;1.08;63.41
21011;BME280;10663;42.714;23.274;2023-03-13T03:27:54;95173.53;;;0.94;64.13
21011;BME280;10663;42.714;23.274;2023-03-13T03:29:34;95177.56;;;0.96;63.73
21011;BME280;10663;42.714;23.274;2023-03-13T03:31:10;95171.72;;;0.88;63.75
21011;BME280;10663;42.714;23.274;2023-03-13T03:32:48;95166.66;;;0.80;64.45
21011;BME280;10663;42.714;23.274;2023-03-13T03:34:22;95166.69;;;0.86;64.10
21011;BME280;10663;42.714;23.274;2023-03-13T03:36:01;95167.94;;;0.97;64.25
21011;BME280;10663;42.714;23.274;2023-03-13T03:37:33;95165.84;;;1.20;63.57
21011;BME280;10663;42.714;23.274;2023-03-13T03:39:05;95178.03;;;1.06;63.74
21011;BME280;10663;42.714;23.274;2023-03-13T03:40:36;95194.34;;;0.81;63.83
21011;BME280;10663;42.714;23.274;2023-03-13T03:42:07;95190.88;;;0.73;64.57
21011;BME280;10663;42.714;23.274;2023-03-13T03:43:40;95207.75;;;0.78;65.21
21011;BME280;10663;42.714;23.274;2023-03-13T03:45:12;95203.31;;;0.71;65.28
21011;BME280;10663;42.714;23.274;2023-03-13T03:46:43;95207.38;;;0.81;65.18
21011;BME280;10663;42.714;23.274;2023-03-13T03:48:16;95212.75;;;0.72;64.59
21011;BME280;10663;42.714;23.274;2023-03-13T03:49:47;95201.59;;;0.57;65.08
21011;BME280;10663;42.714;23.274;2023-03-13T03:51:19;95211.78;;;0.52;65.50
21011;BME280;10663;42.714;23.274;2023-03-13T03:52:51;95211.63;;;0.54;65.40
21011;BME280;10663;42.714;23.274;2023-03-13T03:54:22;95207.38;;;0.81;65.70
21011;BME280;10663;42.714;23.274;2023-03-13T03:55:53;95210.78;;;0.81;65.40
21011;BME280;10663;42.714;23.274;2023-03-13T03:57:24;95209.38;;;1.20;65.77
21011;BME280;10663;42.714;23.274;2023-03-13T03:58:55;95210.34;;;1.12;64.76
21011;BME280;10663;42.714;23.274;2023-03-13T04:00:52;95218.19;;;0.78;64.65
21011;BME280;10663;42.714;23.274;2023-03-13T04:02:23;95218.00;;;0.51;65.58
21011;BME280;10663;42.714;23.274;2023-03-13T04:03:54;95220.50;;;0.66;65.99
21011;BME280;10663;42.714;23.274;2023-03-13T04:05:25;95216.53;;;1.04;65.51
21011;BME280;10663;42.714;23.274;2023-03-13T04:06:56;95223.06;;;0.94;64.49
21011;BME280;10663;42.714;23.274;2023-03-13T04:08:27;95231.34;;;0.97;64.98
21011;BME280;10663;42.714;23.274;2023-03-13T04:09:58;95230.28;;;0.92;64.67
21011;BME280;10663;42.714;23.274;2023-03-13T04:11:39;95230.84;;;0.81;64.31
21011;BME280;10663;42.714;23.274;2023-03-13T04:13:11;95233.97;;;1.04;65.76
21011;BME280;10663;42.714;23.274;2023-03-13T04:14:42;95236.84;;;1.16;65.33
21011;BME280;10663;42.714;23.274;2023-03-13T04:16:16;95232.09;;;1.32;65.28
21011;BME280;10663;42.714;23.274;2023-03-13T04:17:47;95237.66;;;1.16;65.12
21011;BME280;10663;42.714;23.274;2023-03-13T04:19:19;95247.13;;;1.24;65.54
21011;BME280;10663;42.714;23.274;2023-03-13T04:20:59;95246.09;;;1.18;63.96
21011;BME280;10663;42.714;23.274;2023-03-13T04:22:30;95239.75;;;1.34;65.38
21011;BME280;10663;42.714;23.274;2023-03-13T04:24:02;95246.97;;;0.97;64.42
21011;BME280;10663;42.714;23.274;2023-03-13T04:25:34;95247.50;;;0.58;65.38
21011;BME280;10663;42.714;23.274;2023-03-13T04:27:06;95241.41;;;0.45;65.83
21011;BME280;10663;42.714;23.274;2023-03-13T04:28:37;95246.28;;;0.54;65.64
21011;BME280;10663;42.714;23.274;2023-03-13T04:30:11;95246.72;;;0.36;66.27
21011;BME280;10663;42.714;23.274;2023-03-13T04:31:49;95256.25;;;0.23;66.67
21011;BME280;10663;42.714;23.274;2023-03-13T04:33:39;95267.91;;;0.27;66.67
21011;BME280;10663;42.714;23.274;2023-03-13T04:35:22;95263.69;;;0.26;67.18
21011;BME280;10663;42.714;23.274;2023-03-13T04:37:28;95276.94;;;0.31;66.76
21011;BME280;10663;42.714;23.274;2023-03-13T04:39:17;95284.38;;;0.34;66.46
21011;BME280;10663;42.714;23.274;2023-03-13T04:41:08;95283.63;;;0.19;66.74
21011;BME280;10663;42.714;23.274;2023-03-13T04:43:02;95272.50;;;0.25;66.78
21011;BME280;10663;42.714;23.274;2023-03-13T04:44:49;95287.47;;;0.44;67.25
21011;BME280;10663;42.714;23.274;2023-03-13T04:46:39;95290.84;;;0.66;65.62
21011;BME280;10663;42.714;23.274;2023-03-13T04:48:17;95297.63;;;0.60;65.51
21011;BME280;10663;42.714;23.274;2023-03-13T04:49:57;95290.84;;;0.66;65.23
21011;BME280;10663;42.714;23.274;2023-03-13T04:51:44;95288.44;;;0.64;65.30
21011;BME280;10663;42.714;23.274;2023-03-13T04:53:33;95289.72;;;0.75;65.69
21011;BME280;10663;42.714;23.274;2023-03-13T04:55:22;95294.94;;;0.75;65.11
21011;BME280;10663;42.714;23.274;2023-03-13T04:57:13;95287.44;;;0.93;64.64
21011;BME280;10663;42.714;23.274;2023-03-13T04:59:08;95297.31;;;0.98;65.50
21011;BME280;10663;42.714;23.274;2023-03-13T05:00:59;95293.88;;;0.91;64.53
21011;BME280;10663;42.714;23.274;2023-03-13T05:02:47;95291.53;;;1.02;64.36
21011;BME280;10663;42.714;23.274;2023-03-13T05:04:30;95282.53;;;1.46;63.75
21011;BME280;10663;42.714;23.274;2023-03-13T05:06:27;95283.19;;;1.55;62.31
21011;BME280;10663;42.714;23.274;2023-03-13T05:08:23;95276.28;;;1.40;62.14
21011;BME280;10663;42.714;23.274;2023-03-13T05:10:21;95282.78;;;1.58;63.28
21011;BME280;10663;42.714;23.274;2023-03-13T05:12:10;95299.06;;;1.60;62.93
21011;BME280;10663;42.714;23.274;2023-03-13T05:14:00;95302.84;;;1.98;62.97
21011;BME280;10663;42.714;23.274;2023-03-13T05:15:49;95297.78;;;1.42;62.80
21011;BME280;10663;42.714;23.274;2023-03-13T05:17:41;95296.72;;;1.71;61.38
21011;BME280;10663;42.714;23.274;2023-03-13T05:19:32;95303.44;;;2.00;62.66
21011;BME280;10663;42.714;23.274;2023-03-13T05:21:31;95298.50;;;2.45;62.26
21011;BME280;10663;42.714;23.274;2023-03-13T05:23:21;95303.72;;;2.32;61.50
21011;BME280;10663;42.714;23.274;2023-03-13T05:25:05;95313.63;;;1.82;61.28
21011;BME280;10663;42.714;23.274;2023-03-13T05:26:55;95314.25;;;1.91;63.64
21011;BME280;10663;42.714;23.274;2023-03-13T05:28:55;95320.69;;;1.95;61.87
21011;BME280;10663;42.714;23.274;2023-03-13T05:30:46;95308.81;;;1.92;61.68
21011;BME280;10663;42.714;23.274;2023-03-13T05:32:31;95309.78;;;2.45;63.14
21011;BME280;10663;42.714;23.274;2023-03-13T05:34:24;95310.19;;;2.62;62.49
21011;BME280;10663;42.714;23.274;2023-03-13T05:36:11;95313.81;;;2.68;62.54
21011;BME280;10663;42.714;23.274;2023-03-13T05:37:48;95314.19;;;2.58;60.95
21011;BME280;10663;42.714;23.274;2023-03-13T05:39:46;95317.00;;;2.43;63.52
21011;BME280;10663;42.714;23.274;2023-03-13T05:41:42;95323.25;;;2.62;65.41
21011;BME280;10663;42.714;23.274;2023-03-13T05:43:23;95326.69;;;2.76;63.98
21011;BME280;10663;42.714;23.274;2023-03-13T05:45:17;95325.06;;;2.75;62.70
21011;BME280;10663;42.714;23.274;2023-03-13T05:46:56;95326.28;;;2.72;62.12
21011;BME280;10663;42.714;23.274;2023-03-13T05:48:52;95328.69;;;2.93;62.45
21011;BME280;10663;42.714;23.274;2023-03-13T05:50:41;95331.72;;;3.04;61.10
21011;BME280;10663;42.714;23.274;2023-03-13T05:52:26;95331.31;;;2.93;60.62
21011;BME280;10663;42.714;23.274;2023-03-13T05:54:24;95326.28;;;2.85;61.44
21011;BME280;10663;42.714;23.274;2023-03-13T05:56:18;95330.28;;;3.21;60.82
21011;BME280;10663;42.714;23.274;2023-03-13T05:57:59;95333.09;;;3.32;59.10
21011;BME280;10663;42.714;23.274;2023-03-13T05:59:50;95341.94;;;3.45;59.00
21011;BME280;10663;42.714;23.274;2023-03-13T06:01:40;95346.59;;;3.10;58.05
21011;BME280;10663;42.714;23.274;2023-03-13T06:03:19;95348.81;;;3.19;57.31
21011;BME280;10663;42.714;23.274;2023-03-13T06:04:52;95344.31;;;3.59;64.79
21011;BME280;10663;42.714;23.274;2023-03-13T06:06:23;95344.28;;;3.79;62.48
21011;BME280;10663;42.714;23.274;2023-03-13T06:07:56;95336.78;;;3.83;59.72
21011;BME280;10663;42.714;23.274;2023-03-13T06:09:27;95336.28;;;3.54;58.67
21011;BME280;10663;42.714;23.274;2023-03-13T06:11:01;95341.91;;;3.58;58.11
21011;BME280;10663;42.714;23.274;2023-03-13T06:12:32;95333.28;;;3.37;58.24
21011;BME280;10663;42.714;23.274;2023-03-13T06:14:04;95337.75;;;3.24;57.08
21011;BME280;10663;42.714;23.274;2023-03-13T06:16:01;95348.00;;;2.86;58.48
21011;BME280;10663;42.714;23.274;2023-03-13T06:17:47;95345.97;;;2.61;59.31
21011;BME280;10663;42.714;23.274;2023-03-13T06:19:19;95342.16;;;3.36;59.74
21011;BME280;10663;42.714;23.274;2023-03-13T06:20:56;95343.88;;;3.82;58.08
21011;BME280;10663;42.714;23.274;2023-03-13T06:22:27;95336.94;;;3.94;57.75
21011;BME280;10663;42.714;23.274;2023-03-13T06:23:58;95333.66;;;4.12;57.00
21011;BME280;10663;42.714;23.274;2023-03-13T06:25:30;95335.81;;;4.22;58.82
21011;BME280;10663;42.714;23.274;2023-03-13T06:27:01;95340.91;;;4.17;56.66
21011;BME280;10663;42.714;23.274;2023-03-13T06:28:32;95336.28;;;4.12;58.34
21011;BME280;10663;42.714;23.274;2023-03-13T06:30:03;95333.69;;;4.05;58.10
21011;BME280;10663;42.714;23.274;2023-03-13T06:31:34;95331.22;;;4.17;57.04
21011;BME280;10663;42.714;23.274;2023-03-13T06:33:05;95323.78;;;4.14;58.15
21011;BME280;10663;42.714;23.274;2023-03-13T06:34:36;95319.31;;;4.53;57.09
21011;BME280;10663;42.714;23.274;2023-03-13T06:36:07;95312.53;;;4.45;55.78
21011;BME280;10663;42.714;23.274;2023-03-13T06:37:38;95317.88;;;4.25;55.53
21011;BME280;10663;42.714;23.274;2023-03-13T06:39:10;95319.03;;;4.36;56.00
21011;BME280;10663;42.714;23.274;2023-03-13T06:40:41;95331.91;;;4.37;54.03
21011;BME280;10663;42.714;23.274;2023-03-13T06:42:12;95340.66;;;3.67;53.89
21011;BME280;10663;42.714;23.274;2023-03-13T06:43:43;95338.91;;;4.12;52.98
21011;BME280;10663;42.714;23.274;2023-03-13T06:45:14;95335.56;;;4.36;53.46
21011;BME280;10663;42.714;23.274;2023-03-13T06:46:45;95340.91;;;4.17;55.14
21011;BME280;10663;42.714;23.274;2023-03-13T06:48:16;95337.72;;;4.08;54.52
21011;BME280;10663;42.714;23.274;2023-03-13T06:49:47;95347.81;;;4.04;54.11
21011;BME280;10663;42.714;23.274;2023-03-13T06:51:20;95340.44;;;4.26;54.50
21011;BME280;10663;42.714;23.274;2023-03-13T06:52:51;95337.03;;;4.26;53.62
21011;BME280;10663;42.714;23.274;2023-03-13T06:54:22;95331.53;;;4.34;53.50
21011;BME280;10663;42.714;23.274;2023-03-13T06:55:53;95332.94;;;4.36;53.79
21011;BME280;10663;42.714;23.274;2023-03-13T06:57:24;95332.22;;;4.16;52.19
21011;BME280;10663;42.714;23.274;2023-03-13T06:58:55;95333.75;;;3.86;54.00
21011;BME280;10663;42.714;23.274;2023-03-13T07:00:26;95327.59;;;4.18;54.88
21011;BME280;10663;42.714;23.274;2023-03-13T07:01:56;95329.56;;;4.61;54.76
21011;BME280;10663;42.714;23.274;2023-03-13T07:03:27;95331.16;;;4.62;53.31
21011;BME280;10663;42.714;23.274;2023-03-13T07:04:58;95329.47;;;4.74;53.65
21011;BME280;10663;42.714;23.274;2023-03-13T07:08:46;95330.38;;;4.86;51.24
21011;BME280;10663;42.714;23.274;2023-03-13T07:10:18;95331.63;;;4.52;53.00
21011;BME280;10663;42.714;23.274;2023-03-13T07:11:49;95332.38;;;4.59;52.69
21011;BME280;10663;42.714;23.274;2023-03-13T07:13:20;95331.69;;;4.45;52.82
21011;BME280;10663;42.714;23.274;2023-03-13T07:14:53;95330.38;;;4.61;52.40
21011;BME280;10663;42.714;23.274;2023-03-13T07:16:24;95327.78;;;4.55;53.32
21011;BME280;10663;42.714;23.274;2023-03-13T07:17:56;95328.97;;;4.59;52.88
21011;BME280;10663;42.714;23.274;2023-03-13T07:19:28;95322.09;;;4.58;53.51
21011;BME280;10663;42.714;23.274;2023-03-13T07:21:00;95322.84;;;3.95;54.83
21011;BME280;10663;42.714;23.274;2023-03-13T07:22:31;95323.75;;;4.52;53.35
21011;BME280;10663;42.714;23.274;2023-03-13T07:24:02;95321.09;;;4.90;52.55
21011;BME280;10663;42.714;23.274;2023-03-13T07:25:36;95322.03;;;4.96;51.18
21011;BME280;10663;42.714;23.274;2023-03-13T07:27:07;95318.94;;;4.80;52.09
21011;BME280;10663;42.714;23.274;2023-03-13T07:28:38;95326.47;;;4.95;51.29
21011;BME280;10663;42.714;23.274;2023-03-13T07:30:09;95321.59;;;4.74;51.79
21011;BME280;10663;42.714;23.274;2023-03-13T07:31:40;95319.59;;;5.01;52.30
21011;BME280;10663;42.714;23.274;2023-03-13T07:33:11;95323.97;;;4.82;53.38
21011;BME280;10663;42.714;23.274;2023-03-13T07:34:42;95328.16;;;5.14;51.98
21011;BME280;10663;42.714;23.274;2023-03-13T07:36:16;95329.28;;;5.00;50.61
21011;BME280;10663;42.714;23.274;2023-03-13T07:37:46;95325.03;;;4.43;52.12
21011;BME280;10663;42.714;23.274;2023-03-13T07:39:17;95318.03;;;4.37;52.19
21011;BME280;10663;42.714;23.274;2023-03-13T07:40:54;95325.13;;;4.61;52.09
21011;BME280;10663;42.714;23.274;2023-03-13T07:42:25;95322.16;;;4.51;51.95
21011;BME280;10663;42.714;23.274;2023-03-13T07:43:56;95326.28;;;4.65;51.75
21011;BME280;10663;42.714;23.274;2023-03-13T07:45:27;95327.06;;;4.72;51.90
21011;BME280;10663;42.714;23.274;2023-03-13T07:47:00;95324.63;;;4.46;53.53
21011;BME280;10663;42.714;23.274;2023-03-13T07:48:41;95324.72;;;4.89;54.38
21011;BME280;10663;42.714;23.274;2023-03-13T07:50:12;95327.88;;;5.22;52.63
21011;BME280;10663;42.714;23.274;2023-03-13T07:51:43;95308.72;;;5.58;51.74
21011;BME280;10663;42.714;23.274;2023-03-13T07:53:17;95313.53;;;5.25;50.69
21011;BME280;10663;42.714;23.274;2023-03-13T07:54:51;95321.59;;;5.23;50.42
21011;BME280;10663;42.714;23.274;2023-03-13T07:56:22;95314.47;;;5.31;50.66
21011;BME280;10663;42.714;23.274;2023-03-13T07:57:53;95314.56;;;5.42;49.85
21011;BME280;10663;42.714;23.274;2023-03-13T07:59:24;95311.94;;;5.42;51.30
21011;BME280;10663;42.714;23.274;2023-03-13T08:00:55;95305.91;;;5.78;50.94
21011;BME280;10663;42.714;23.274;2023-03-13T08:02:27;95306.28;;;6.00;50.04
21011;BME280;10663;42.714;23.274;2023-03-13T08:03:58;95301.88;;;5.76;49.67
21011;BME280;10663;42.714;23.274;2023-03-13T08:05:32;95304.75;;;5.31;50.27
21011;BME280;10663;42.714;23.274;2023-03-13T08:07:07;95302.53;;;5.35;50.81
21011;BME280;10663;42.714;23.274;2023-03-13T08:08:39;95306.22;;;5.27;51.08
21011;BME280;10663;42.714;23.274;2023-03-13T08:10:10;95302.66;;;5.40;50.03
21011;BME280;10663;42.714;23.274;2023-03-13T08:11:41;95307.41;;;5.86;50.10
21011;BME280;10663;42.714;23.274;2023-03-13T08:13:14;95297.50;;;5.70;48.76
21011;BME280;10663;42.714;23.274;2023-03-13T08:14:44;95299.31;;;5.69;49.25
21011;BME280;10663;42.714;23.274;2023-03-13T08:16:19;95304.28;;;5.59;49.08
21011;BME280;10663;42.714;23.274;2023-03-13T08:17:53;95306.81;;;5.47;49.14
21011;BME280;10663;42.714;23.274;2023-03-13T08:19:24;95312.84;;;5.54;49.77
21011;BME280;10663;42.714;23.274;2023-03-13T08:20:55;95322.63;;;5.22;50.26
21011;BME280;10663;42.714;23.274;2023-03-13T08:22:30;95305.59;;;5.68;48.99
21011;BME280;10663;42.714;23.274;2023-03-13T08:24:03;95313.28;;;5.70;49.20
21011;BME280;10663;42.714;23.274;2023-03-13T08:25:36;95310.63;;;5.51;48.91
21011;BME280;10663;42.714;23.274;2023-03-13T08:27:07;95316.19;;;5.80;48.56
21011;BME280;10663;42.714;23.274;2023-03-13T08:28:38;95308.22;;;6.23;47.83
21011;BME280;10663;42.714;23.274;2023-03-13T08:30:09;95313.38;;;6.29;47.34
21011;BME280;10663;42.714;23.274;2023-03-13T08:31:48;95318.59;;;5.81;48.32
21011;BME280;10663;42.714;23.274;2023-03-13T08:33:19;95314.66;;;5.72;49.26
21011;BME280;10663;42.714;23.274;2023-03-13T08:34:49;95316.03;;;5.75;49.03
21011;BME280;10663;42.714;23.274;2023-03-13T08:36:26;95321.53;;;5.73;48.23
21011;BME280;10663;42.714;23.274;2023-03-13T08:37:57;95319.16;;;5.83;48.87